Time;durP1;ratioP1;P1;durP2;ratioP2;P2;SDS_P1;SDS_P2;PMS_P1;PMS_P2;Temp;Humidity;BMP_temperature;BMP_pressure;BME280_temperature;BME280_humidity;BME280_pressure;Samples;Min_cycle;Max_cycle;Signal;HPM_P1;HPM_P2
2022/03/01 00:00:18;;;;;;;8.98;8.07;;;17.20;46.20;;;;;;5051849;28;20174;-65
2022/03/01 00:02:44;;;;;;;8.27;7.50;;;17.20;46.20;;;;;;5050943;28;20592;-65
2022/03/01 00:05:10;;;;;;;9.10;8.10;;;17.20;46.30;;;;;;5051541;28;20179;-64
2022/03/01 00:07:35;;;;;;;8.65;7.57;;;17.20;46.20;;;;;;5051951;28;20205;-63
2022/03/01 00:10:01;;;;;;;8.43;7.63;;;17.20;46.30;;;;;;5050846;28;20184;-63
2022/03/01 00:12:26;;;;;;;8.45;7.65;;;17.20;46.30;;;;;;5051816;28;20170;-64
2022/03/01 00:14:52;;;;;;;9.38;8.38;;;17.10;46.30;;;;;;5051713;28;20223;-64
2022/03/01 00:17:17;;;;;;;8.88;7.57;;;17.10;46.30;;;;;;5050941;28;20163;-65
2022/03/01 00:19:43;;;;;;;8.38;7.55;;;17.10;46.30;;;;;;5051631;28;20168;-65
2022/03/01 00:22:08;;;;;;;8.63;7.80;;;17.10;46.30;;;;;;5051393;28;20210;-64
2022/03/01 00:24:34;;;;;;;8.68;7.88;;;17.10;46.30;;;;;;5051007;28;20245;-64
2022/03/01 00:26:59;;;;;;;8.65;7.85;;;17.10;46.30;;;;;;5051354;28;20182;-63
2022/03/01 00:29:25;;;;;;;8.25;7.43;;;17.10;46.30;;;;;;5051658;28;20171;-62
2022/03/01 00:31:50;;;;;;;8.60;7.80;;;17.00;46.30;;;;;;5050811;28;20176;-62
2022/03/01 00:34:16;;;;;;;8.23;7.40;;;17.00;46.20;;;;;;5051545;28;20307;-63
2022/03/01 00:36:41;;;;;;;8.50;7.70;;;17.00;46.30;;;;;;5051787;28;20174;-64
2022/03/01 00:39:07;;;;;;;9.00;8.10;;;17.00;46.30;;;;;;5050572;28;20171;-64
2022/03/01 00:41:33;;;;;;;8.52;7.72;;;17.00;46.40;;;;;;5053820;28;20202;-65
2022/03/01 00:43:58;;;;;;;8.27;7.47;;;17.00;46.30;;;;;;5054909;28;20194;-64
2022/03/01 00:46:26;;;;;;;8.35;7.57;;;16.90;46.30;;;;;;5054412;28;20268;-65
2022/03/01 00:48:53;;;;;;;8.05;7.35;;;16.90;46.20;;;;;;5055248;28;20179;-62
2022/03/01 00:51:18;;;;;;;9.50;8.45;;;16.90;46.30;;;;;;5055283;28;20190;-63
2022/03/01 00:53:43;;;;;;;8.75;7.93;;;16.90;46.20;;;;;;5053971;28;20231;-63
2022/03/01 00:56:09;;;;;;;8.55;7.75;;;16.90;46.30;;;;;;5054802;28;20668;-63
2022/03/01 00:58:34;;;;;;;8.18;7.35;;;16.90;46.40;;;;;;5054214;28;20179;-64
2022/03/01 01:01:00;;;;;;;8.55;7.65;;;16.90;46.40;;;;;;5054434;28;20257;-64
2022/03/01 01:03:25;;;;;;;8.18;7.40;;;16.90;46.30;;;;;;5054777;28;20321;-65
2022/03/01 01:05:51;;;;;;;8.20;7.28;;;16.80;46.30;;;;;;5054068;28;20634;-64
2022/03/01 01:08:16;;;;;;;8.50;7.57;;;16.80;46.30;;;;;;5053512;28;20175;-64
2022/03/01 01:10:42;;;;;;;8.60;7.80;;;16.80;46.30;;;;;;5054875;28;20190;-64
2022/03/01 01:13:07;;;;;;;8.15;7.35;;;16.80;46.30;;;;;;5053671;28;20187;-63
2022/03/01 01:15:33;;;;;;;8.75;7.75;;;16.80;46.30;;;;;;5054601;28;20289;-63
2022/03/01 01:17:58;;;;;;;9.15;8.07;;;16.80;46.30;;;;;;5054552;28;20190;-65
2022/03/01 01:20:24;;;;;;;7.70;7.00;;;16.80;46.30;;;;;;5053889;28;20175;-64
2022/03/01 01:22:49;;;;;;;8.55;7.75;;;16.80;46.30;;;;;;5054669;28;20178;-64
2022/03/01 01:25:24;;;;;;;8.40;7.55;;;16.80;46.30;;;;;;5054136;28;20179;-63
2022/03/01 01:27:51;;;;;;;8.95;7.90;;;16.70;46.30;;;;;;5053636;28;20214;-62
2022/03/01 01:30:18;;;;;;;8.52;7.72;;;16.70;46.20;;;;;;5054034;28;20187;-62
2022/03/01 01:32:44;;;;;;;7.90;7.15;;;16.70;46.30;;;;;;5054533;28;20198;-63
2022/03/01 01:35:10;;;;;;;8.23;7.43;;;16.70;46.20;;;;;;5053399;28;20634;-63
2022/03/01 01:37:36;;;;;;;8.23;7.45;;;16.70;46.30;;;;;;5054506;28;20183;-64
2022/03/01 01:40:02;;;;;;;8.40;7.60;;;16.70;46.30;;;;;;5053881;28;20175;-64
2022/03/01 01:42:28;;;;;;;8.80;8.00;;;16.70;46.30;;;;;;5053445;28;20171;-64
2022/03/01 01:44:53;;;;;;;7.93;7.07;;;16.70;46.30;;;;;;5053823;28;20233;-64
2022/03/01 01:47:19;;;;;;;8.68;7.88;;;16.60;46.20;;;;;;5054241;28;20171;-63
2022/03/01 01:49:44;;;;;;;8.32;7.60;;;16.60;46.30;;;;;;5053492;28;20245;-62
2022/03/01 01:52:10;;;;;;;9.20;8.30;;;16.60;46.20;;;;;;5053560;28;20236;-63
2022/03/01 01:54:35;;;;;;;7.68;7.00;;;16.60;46.20;;;;;;5053626;28;20660;-63
2022/03/01 01:57:01;;;;;;;8.48;7.68;;;16.60;46.20;;;;;;5053066;28;20258;-64
2022/03/01 01:59:26;;;;;;;8.27;7.47;;;16.60;46.30;;;;;;5052513;28;20181;-63
2022/03/01 02:01:52;;;;;;;7.32;6.63;;;16.60;46.30;;;;;;5053266;28;20182;-65
2022/03/01 02:04:18;;;;;;;8.70;7.75;;;16.60;46.30;;;;;;5053957;28;20179;-64
2022/03/01 02:06:53;;;;;;;8.13;7.32;;;16.60;46.30;;;;;;5053774;28;20633;-63
2022/03/01 02:09:19;;;;;;;8.00;7.22;;;16.50;46.30;;;;;;5052980;28;20260;-63
2022/03/01 02:11:44;;;;;;;8.30;7.55;;;16.50;46.30;;;;;;5053555;28;20198;-63
2022/03/01 02:14:10;;;;;;;8.35;7.55;;;16.50;46.30;;;;;;5053369;28;20305;-63
2022/03/01 02:16:35;;;;;;;7.85;7.15;;;16.50;46.30;;;;;;5052989;28;20278;-64
2022/03/01 02:19:01;;;;;;;7.40;6.70;;;16.50;46.30;;;;;;5053203;28;20182;-64
2022/03/01 02:21:27;;;;;;;7.47;6.78;;;16.50;46.30;;;;;;5053517;28;20565;-63
2022/03/01 02:23:52;;;;;;;7.22;6.47;;;16.50;46.30;;;;;;5052446;28;20261;-62
2022/03/01 02:26:18;;;;;;;8.10;7.35;;;16.50;46.30;;;;;;5053099;28;20182;-62
2022/03/01 02:28:43;;;;;;;8.63;7.68;;;16.50;46.40;;;;;;5053474;28;20583;-61
2022/03/01 02:31:09;;;;;;;7.82;7.05;;;16.50;46.40;;;;;;5052403;28;20281;-61
2022/03/01 02:33:34;;;;;;;7.65;6.90;;;16.50;46.30;;;;;;5053183;28;20167;-62
2022/03/01 02:36:00;;;;;;;8.18;7.38;;;16.40;46.30;;;;;;5052957;28;20179;-63
2022/03/01 02:38:25;;;;;;;8.02;7.22;;;16.40;46.30;;;;;;5052359;28;20523;-64
2022/03/01 02:40:51;;;;;;;8.05;7.25;;;16.40;46.30;;;;;;5052961;28;20189;-64
2022/03/01 02:43:16;;;;;;;7.60;6.90;;;16.40;46.30;;;;;;5052930;28;20194;-63
2022/03/01 02:45:42;;;;;;;8.63;7.80;;;16.40;46.30;;;;;;5052362;28;20198;-63
2022/03/01 02:48:07;;;;;;;7.78;7.07;;;16.40;46.30;;;;;;5052548;28;20175;-63
2022/03/01 02:50:33;;;;;;;7.03;6.43;;;16.40;46.30;;;;;;5052786;28;20583;-62
2022/03/01 02:52:58;;;;;;;7.35;6.65;;;16.40;46.40;;;;;;5051737;28;20286;-62
2022/03/01 02:55:24;;;;;;;7.90;7.20;;;16.40;46.30;;;;;;5052458;28;20558;-62
2022/03/01 02:57:49;;;;;;;7.30;6.70;;;16.30;46.30;;;;;;5052571;28;20194;-63
2022/03/01 03:00:15;;;;;;;7.55;6.85;;;16.30;46.30;;;;;;5051822;28;20183;-62
2022/03/01 03:02:42;;;;;;;7.45;6.75;;;16.30;46.30;;;;;;5052821;28;20195;-64
2022/03/01 03:05:07;;;;;;;8.18;7.35;;;16.30;46.90;;;;;;5051017;28;20591;-63
2022/03/01 03:07:33;;;;;;;7.95;7.05;;;16.30;46.40;;;;;;5052540;28;20229;-62
2022/03/01 03:09:58;;;;;;;7.85;7.05;;;16.30;46.40;;;;;;5052082;28;20262;-62
2022/03/01 03:12:24;;;;;;;7.50;6.78;;;16.30;46.30;;;;;;5051818;28;20260;-63
2022/03/01 03:14:49;;;;;;;7.53;6.82;;;16.30;46.40;;;;;;5052464;28;20253;-63
2022/03/01 03:17:15;;;;;;;6.97;6.28;;;16.30;46.40;;;;;;5052252;28;20194;-64
2022/03/01 03:19:40;;;;;;;7.65;6.95;;;16.30;46.40;;;;;;5051698;28;20251;-64
2022/03/01 03:22:06;;;;;;;7.45;6.75;;;16.30;46.40;;;;;;5051910;28;20194;-63
2022/03/01 03:24:32;;;;;;;7.07;6.47;;;16.30;46.50;;;;;;5052163;28;20254;-63
2022/03/01 03:26:57;;;;;;;7.40;6.80;;;16.20;46.40;;;;;;5051222;28;20179;-62
2022/03/01 03:29:23;;;;;;;7.57;6.85;;;16.20;46.40;;;;;;5052081;28;20270;-61
2022/03/01 03:31:48;;;;;;;6.90;6.18;;;16.20;46.40;;;;;;5052329;28;20203;-62
2022/03/01 03:34:14;;;;;;;6.90;6.30;;;16.20;46.40;;;;;;5051053;28;20238;-63
2022/03/01 03:36:40;;;;;;;7.65;6.90;;;16.20;46.70;;;;;;5051958;28;20186;-63
2022/03/01 03:39:08;;;;;;;7.90;7.10;;;16.20;46.40;;;;;;5051658;28;20175;-64
2022/03/01 03:41:33;;;;;;;7.43;6.57;;;16.20;46.40;;;;;;5051489;28;20179;-64
2022/03/01 03:43:59;;;;;;;7.68;6.95;;;16.20;46.40;;;;;;5051901;28;20182;-63
2022/03/01 03:46:25;;;;;;;7.13;6.50;;;16.20;46.40;;;;;;5052094;28;20175;-64
2022/03/01 03:48:52;;;;;;;7.57;6.88;;;16.20;46.50;;;;;;5051478;28;20598;-62
2022/03/01 03:51:17;;;;;;;6.60;6.00;;;16.10;46.40;;;;;;5051880;28;20206;-62
2022/03/01 03:53:43;;;;;;;7.05;6.45;;;16.10;46.40;;;;;;5051543;28;20245;-61
2022/03/01 03:56:08;;;;;;;7.22;6.63;;;16.10;46.40;;;;;;5051205;28;20178;-64
2022/03/01 03:58:34;;;;;;;6.65;5.85;;;16.10;46.50;;;;;;5051922;28;20354;-64
2022/03/01 04:00:59;;;;;;;6.93;6.32;;;16.10;46.40;;;;;;5051602;28;20179;-65
2022/03/01 04:03:25;;;;;;;7.05;6.28;;;16.10;46.40;;;;;;5049864;28;20516;-64
2022/03/01 04:05:51;;;;;;;6.93;6.32;;;16.10;46.40;;;;;;5051795;28;20167;-64
2022/03/01 04:08:17;;;;;;;7.43;6.68;;;16.10;46.50;;;;;;5051370;28;20223;-63
2022/03/01 04:10:43;;;;;;;7.63;6.93;;;16.10;46.40;;;;;;5051172;28;20178;-63
2022/03/01 04:13:08;;;;;;;6.78;6.13;;;16.10;46.40;;;;;;5051603;28;20183;-64
2022/03/01 04:15:34;;;;;;;6.75;6.07;;;16.10;46.40;;;;;;5051640;28;20218;-63
2022/03/01 04:18:00;;;;;;;7.07;6.47;;;16.00;46.40;;;;;;5055678;28;20599;-64
2022/03/01 04:20:25;;;;;;;7.50;6.80;;;16.00;46.40;;;;;;5055784;28;20175;-64
2022/03/01 04:22:51;;;;;;;6.72;6.13;;;16.00;46.40;;;;;;5055112;28;20171;-64
2022/03/01 04:25:16;;;;;;;6.75;6.13;;;16.00;46.40;;;;;;5055315;28;20249;-62
2022/03/01 04:27:42;;;;;;;6.78;6.10;;;16.00;46.50;;;;;;5055625;28;20175;-62
2022/03/01 04:30:08;;;;;;;7.20;6.50;;;16.00;46.50;;;;;;5054658;28;20219;-62
2022/03/01 04:32:34;;;;;;;6.88;6.15;;;16.00;46.50;;;;;;5055362;28;20203;-63
2022/03/01 04:35:01;;;;;;;6.25;5.65;;;16.00;46.50;;;;;;5054923;28;20707;-63
2022/03/01 04:37:26;;;;;;;6.78;6.18;;;16.00;46.50;;;;;;5054635;28;20548;-64
2022/03/01 04:39:52;;;;;;;6.18;5.68;;;15.90;46.50;;;;;;5055386;28;20175;-65
2022/03/01 04:42:17;;;;;;;6.88;6.18;;;15.90;46.50;;;;;;5055541;28;20175;-65
2022/03/01 04:44:43;;;;;;;6.57;5.97;;;15.90;47.10;;;;;;5054577;28;20179;-64
2022/03/01 04:47:09;;;;;;;6.65;6.05;;;15.90;46.50;;;;;;5054962;28;20203;-64
2022/03/01 04:49:34;;;;;;;7.40;6.70;;;15.90;46.50;;;;;;5055278;28;20179;-62
2022/03/01 04:52:00;;;;;;;7.13;6.53;;;15.90;46.50;;;;;;5054115;28;20262;-63
2022/03/01 04:54:25;;;;;;;6.50;5.90;;;15.90;46.50;;;;;;5054676;28;20586;-64
2022/03/01 04:56:51;;;;;;;7.45;6.75;;;15.90;46.50;;;;;;5055096;28;20228;-65
2022/03/01 04:59:16;;;;;;;7.00;6.30;;;15.90;46.50;;;;;;5054214;28;20163;-65
2022/03/01 05:01:42;;;;;;;6.63;6.05;;;15.90;46.60;;;;;;5054960;28;20202;-64
2022/03/01 05:04:08;;;;;;;6.57;5.93;;;15.90;46.50;;;;;;5054592;28;20191;-65
2022/03/01 05:06:33;;;;;;;6.53;5.90;;;15.80;46.50;;;;;;5054220;28;20630;-64
2022/03/01 05:08:59;;;;;;;7.38;6.68;;;15.80;46.50;;;;;;5054677;28;20609;-64
2022/03/01 05:11:24;;;;;;;7.05;6.45;;;15.80;47.20;;;;;;5055056;28;20167;-64
2022/03/01 05:13:50;;;;;;;6.50;5.90;;;15.80;46.50;;;;;;5054043;28;20190;-64
2022/03/01 05:16:15;;;;;;;6.05;5.55;;;15.80;46.50;;;;;;5054754;28;20510;-64
2022/03/01 05:18:41;;;;;;;6.72;6.13;;;15.80;46.50;;;;;;5054072;28;20519;-65
2022/03/01 05:21:06;;;;;;;6.55;5.80;;;15.80;46.50;;;;;;5054441;28;20182;-64
2022/03/01 05:23:32;;;;;;;7.57;6.88;;;15.80;46.60;;;;;;5054406;28;20195;-64
2022/03/01 05:25:59;;;;;;;7.32;6.63;;;15.80;46.50;;;;;;5053187;28;20171;-63
2022/03/01 05:28:24;;;;;;;7.05;6.45;;;15.80;46.60;;;;;;5054483;28;20175;-62
2022/03/01 05:30:50;;;;;;;6.88;6.10;;;15.80;46.60;;;;;;5054674;28;20261;-62
2022/03/01 05:33:15;;;;;;;7.05;6.28;;;15.80;46.50;;;;;;5053615;28;20189;-64
2022/03/01 05:35:42;;;;;;;7.90;7.20;;;15.70;46.50;;;;;;5054537;28;20234;-64
2022/03/01 05:38:09;;;;;;;6.32;5.82;;;15.70;46.50;;;;;;5054087;28;20179;-66
2022/03/01 05:40:35;;;;;;;6.65;6.05;;;15.70;46.50;;;;;;5053772;28;20258;-65
2022/03/01 05:43:01;;;;;;;5.80;5.30;;;15.70;46.60;;;;;;5054035;28;20275;-65
2022/03/01 05:45:26;;;;;;;6.53;5.93;;;15.70;46.60;;;;;;5054686;28;20636;-65
2022/03/01 05:47:52;;;;;;;6.50;5.90;;;15.70;46.60;;;;;;5053457;28;20629;-64
2022/03/01 05:50:18;;;;;;;6.88;6.18;;;15.70;46.50;;;;;;5054338;28;20179;-63
2022/03/01 05:52:43;;;;;;;6.72;6.13;;;15.70;46.70;;;;;;5054053;28;20669;-63
2022/03/01 05:55:09;;;;;;;6.32;5.80;;;15.70;46.60;;;;;;5052749;28;20699;-63
2022/03/01 05:57:35;;;;;;;6.15;5.55;;;15.70;46.70;;;;;;5053993;28;20172;-64
2022/03/01 06:00:01;;;;;;;6.93;6.28;;;15.70;46.70;;;;;;5053689;28;20171;-65
2022/03/01 06:02:26;;;;;;;6.45;5.95;;;15.60;46.60;;;;;;5053329;28;20626;-65
2022/03/01 06:04:52;;;;;;;6.68;6.07;;;15.60;46.70;;;;;;5053723;28;20240;-66
2022/03/01 06:07:18;;;;;;;7.15;6.45;;;15.60;46.90;;;;;;5053716;28;20179;-63
2022/03/01 06:09:43;;;;;;;6.65;5.97;;;15.70;46.90;;;;;;5053211;28;20282;-63
2022/03/01 06:12:09;;;;;;;6.95;6.25;;;15.70;46.70;;;;;;5053433;28;20650;-64
2022/03/01 06:14:35;;;;;;;6.20;5.65;;;15.70;46.60;;;;;;5053418;28;20242;-64
2022/03/01 06:17:00;;;;;;;6.20;5.70;;;15.80;46.60;;;;;;5052589;28;20213;-65
2022/03/01 06:19:26;;;;;;;7.90;6.43;;;15.80;46.50;;;;;;5053474;28;20179;-64
2022/03/01 06:21:52;;;;;;;6.38;5.88;;;15.80;46.50;;;;;;5053509;28;20202;-65
2022/03/01 06:24:17;;;;;;;6.93;6.25;;;15.80;46.50;;;;;;5052400;28;20532;-63
2022/03/01 06:26:43;;;;;;;6.55;5.97;;;15.80;46.50;;;;;;5053164;28;20183;-63
2022/03/01 06:29:08;;;;;;;6.50;5.90;;;15.80;46.60;;;;;;5052385;28;20266;-62
2022/03/01 06:31:34;;;;;;;7.05;6.35;;;15.80;46.50;;;;;;5053329;28;20203;-62
2022/03/01 06:33:59;;;;;;;6.70;6.10;;;15.80;46.60;;;;;;5052843;28;20238;-64
2022/03/01 06:36:25;;;;;;;7.35;6.72;;;15.80;46.60;;;;;;5052383;28;20262;-64
2022/03/01 06:38:51;;;;;;;6.57;5.97;;;15.80;46.60;;;;;;5052214;28;20224;-65
2022/03/01 06:41:16;;;;;;;6.47;5.97;;;15.80;46.70;;;;;;5052961;28;20294;-65
2022/03/01 06:43:42;;;;;;;6.65;6.05;;;15.70;46.60;;;;;;5052506;28;20178;-64
2022/03/01 06:46:07;;;;;;;6.38;5.78;;;15.70;46.60;;;;;;5052859;28;20182;-64
2022/03/01 06:48:33;;;;;;;6.25;5.72;;;15.70;46.60;;;;;;5052958;28;20182;-63
2022/03/01 06:50:59;;;;;;;6.85;6.18;;;15.70;46.60;;;;;;5051864;28;20258;-63
2022/03/01 06:53:24;;;;;;;6.50;5.90;;;15.70;46.70;;;;;;5052855;28;20167;-61
2022/03/01 06:55:50;;;;;;;7.03;6.43;;;15.70;46.70;;;;;;5052768;28;20214;-63
2022/03/01 06:58:15;;;;;;;6.88;6.18;;;15.70;46.70;;;;;;5051848;28;20183;-65
2022/03/01 07:00:41;;;;;;;6.18;5.68;;;15.60;46.60;;;;;;5052674;28;20241;-65
2022/03/01 07:03:07;;;;;;;6.30;5.78;;;15.60;46.70;;;;;;5052326;28;20480;-65
2022/03/01 07:05:32;;;;;;;6.65;6.05;;;15.60;46.80;;;;;;5051909;28;20398;-65
2022/03/01 07:07:58;;;;;;;7.15;6.43;;;15.60;46.80;;;;;;5052470;28;20254;-64
2022/03/01 07:10:24;;;;;;;6.45;5.85;;;15.60;46.80;;;;;;5052431;28;20182;-63
2022/03/01 07:12:49;;;;;;;6.72;6.13;;;15.70;46.90;;;;;;5051927;28;20513;-64
2022/03/01 07:15:15;;;;;;;5.90;5.40;;;15.70;46.90;;;;;;5052133;28;20708;-63
2022/03/01 07:17:40;;;;;;;5.65;5.15;;;15.80;46.90;;;;;;5052584;28;20199;-64
2022/03/01 07:20:11;;;;;;;5.57;5.07;;;15.90;47.00;;;;;;5051278;28;20206;-64
2022/03/01 07:22:36;;;;;;;5.80;5.30;;;16.10;47.10;;;;;;5052420;28;20182;-64
2022/03/01 07:25:02;;;;;;;5.55;5.05;;;16.20;47.00;;;;;;5051949;28;20167;-63
2022/03/01 07:27:27;;;;;;;6.78;5.65;;;16.40;46.80;;;;;;5051456;28;20183;-69
2022/03/01 07:29:53;;;;;;;5.90;5.30;;;16.50;46.60;;;;;;5051762;28;20182;-69
2022/03/01 07:32:18;;;;;;;6.18;5.57;;;16.70;46.50;;;;;;5051227;28;20171;-70
2022/03/01 07:34:44;;;;;;;6.05;5.45;;;16.80;46.60;;;;;;5051751;28;20669;-69
2022/03/01 07:37:09;;;;;;;5.63;5.10;;;17.00;46.60;;;;;;5051798;28;20320;-69
2022/03/01 07:39:35;;;;;;;6.07;5.22;;;17.20;46.30;;;;;;5051432;28;20224;-73
2022/03/01 07:42:01;;;;;;;5.68;4.75;;;17.40;46.10;;;;;;5051734;28;20179;-68
2022/03/01 07:44:26;;;;;;;7.13;5.20;;;17.40;46.20;;;;;;5051817;28;20193;-68
2022/03/01 07:46:52;;;;;;;6.32;5.45;;;17.60;46.30;;;;;;5051257;28;20175;-69
2022/03/01 07:49:17;;;;;;;6.68;5.47;;;17.60;46.30;;;;;;5051254;28;20174;-69
2022/03/01 07:51:43;;;;;;;6.00;5.18;;;17.60;46.10;;;;;;5052057;28;20265;-68
2022/03/01 07:54:08;;;;;;;6.90;5.38;;;17.70;45.90;;;;;;5050566;28;20231;-69
2022/03/01 07:56:34;;;;;;;8.00;5.45;;;17.80;45.80;;;;;;5051857;28;20175;-68
2022/03/01 07:58:59;;;;;;;9.02;5.35;;;17.80;45.80;;;;;;5051399;28;20171;-68
2022/03/01 08:01:25;;;;;;;7.32;5.80;;;17.90;45.80;;;;;;5050950;28;20206;-68
2022/03/01 08:03:50;;;;;;;8.77;5.57;;;17.90;45.90;;;;;;5051574;28;20536;-68
2022/03/01 08:06:16;;;;;;;9.07;6.18;;;18.00;45.70;;;;;;5051561;28;20224;-70
2022/03/01 08:08:42;;;;;;;5.90;5.00;;;18.00;45.80;;;;;;5050926;28;20182;-70
2022/03/01 08:11:07;;;;;;;8.50;5.45;;;18.00;45.70;;;;;;5051420;28;20175;-74
2022/03/01 08:13:33;;;;;;;9.57;5.63;;;18.10;45.80;;;;;;5051691;28;20270;-73
2022/03/01 08:15:59;;;;;;;7.65;5.80;;;18.20;45.70;;;;;;5050410;28;20207;-72
2022/03/01 08:18:24;;;;;;;8.02;5.38;;;18.20;45.70;;;;;;5051306;28;20599;-72
2022/03/01 08:20:50;;;;;;;6.30;5.70;;;18.20;45.70;;;;;;5051657;28;20250;-72
2022/03/01 08:23:15;;;;;;;6.85;5.40;;;18.30;45.70;;;;;;5050536;28;20183;-73
2022/03/01 08:25:41;;;;;;;6.43;5.35;;;18.30;45.70;;;;;;5051465;28;20186;-72
2022/03/01 08:28:07;;;;;;;4.88;4.45;;;18.30;45.70;;;;;;5051263;28;20211;-68
2022/03/01 08:30:35;;;;;;;8.85;4.78;;;18.40;45.60;;;;;;5050725;28;20287;-68
2022/03/01 08:33:00;;;;;;;6.80;4.88;;;18.40;45.60;;;;;;5051114;28;20634;-67
2022/03/01 08:35:26;;;;;;;8.23;5.25;;;18.40;45.40;;;;;;5051513;28;20701;-68
2022/03/01 08:37:52;;;;;;;10.50;5.60;;;18.40;45.40;;;;;;5050789;28;20332;-68
2022/03/01 08:40:22;;;;;;;5.32;4.78;;;18.50;45.50;;;;;;5051398;28;20220;-70
2022/03/01 08:42:47;;;;;;;5.75;4.57;;;18.50;45.60;;;;;;5050821;28;20176;-70
2022/03/01 08:45:13;;;;;;;6.45;4.60;;;18.60;45.70;;;;;;5051217;28;20266;-69
2022/03/01 08:47:39;;;;;;;7.13;4.35;;;18.60;45.70;;;;;;5051444;28;20638;-69
2022/03/01 08:50:05;;;;;;;5.85;4.65;;;18.60;45.70;;;;;;5050492;28;20553;-71
2022/03/01 08:52:31;;;;;;;5.00;4.20;;;18.70;45.80;;;;;;5051650;28;20171;-69
2022/03/01 08:54:56;;;;;;;5.78;4.70;;;18.60;45.80;;;;;;5050260;28;20313;-71
2022/03/01 08:57:22;;;;;;;5.43;4.63;;;18.70;46.00;;;;;;5049906;28;20356;-71
2022/03/01 08:59:47;;;;;;;5.35;4.45;;;18.70;46.10;;;;;;5050609;28;20604;-67
2022/03/01 09:02:13;;;;;;;5.88;4.78;;;18.70;46.10;;;;;;5052210;28;20661;-70
2022/03/01 09:04:39;;;;;;;5.72;4.50;;;18.70;46.00;;;;;;5054106;28;20626;-69
2022/03/01 09:07:04;;;;;;;5.85;4.60;;;18.70;45.90;;;;;;5054825;28;20250;-71
2022/03/01 09:09:31;;;;;;;5.20;4.07;;;18.70;46.00;;;;;;5054938;28;20187;-72
2022/03/01 09:11:57;;;;;;;5.40;4.70;;;18.70;45.80;;;;;;5053697;28;20717;-72
2022/03/01 09:14:22;;;;;;;6.70;4.93;;;18.70;45.80;;;;;;5054709;28;20289;-64
2022/03/01 09:16:48;;;;;;;4.78;4.07;;;18.70;45.80;;;;;;5054473;28;20193;-71
2022/03/01 09:19:14;;;;;;;5.25;4.35;;;18.70;45.80;;;;;;5053672;28;20494;-70
2022/03/01 09:21:40;;;;;;;5.10;4.50;;;18.70;45.90;;;;;;5054473;28;20179;-71
2022/03/01 09:24:05;;;;;;;5.43;4.70;;;18.70;45.80;;;;;;5054268;28;20277;-70
2022/03/01 09:26:31;;;;;;;4.93;4.45;;;18.70;45.90;;;;;;5053997;28;20207;-70
2022/03/01 09:28:56;;;;;;;4.85;4.45;;;18.70;45.90;;;;;;5053941;28;20175;-70
2022/03/01 09:31:22;;;;;;;5.00;4.60;;;18.70;45.90;;;;;;5054014;28;20174;-69
2022/03/01 09:33:47;;;;;;;6.13;4.38;;;18.70;45.80;;;;;;5053839;28;20529;-68
2022/03/01 09:36:13;;;;;;;6.38;5.00;;;18.60;45.80;;;;;;5054053;28;20187;-67
2022/03/01 09:38:39;;;;;;;5.00;4.38;;;18.60;45.90;;;;;;5054238;28;20642;-68
2022/03/01 09:41:05;;;;;;;7.40;4.43;;;18.50;45.90;;;;;;5053080;28;20182;-68
2022/03/01 09:43:31;;;;;;;4.35;3.83;;;18.50;46.10;;;;;;5054008;28;20638;-69
2022/03/01 09:45:56;;;;;;;5.40;4.53;;;18.50;46.10;;;;;;5051669;28;20176;-69
2022/03/01 09:48:22;;;;;;;5.15;4.65;;;18.50;46.10;;;;;;5054047;28;20171;-70
2022/03/01 09:50:47;;;;;;;4.78;4.20;;;18.50;46.20;;;;;;5052688;28;20194;-71
2022/03/01 09:53:13;;;;;;;5.57;4.15;;;18.50;46.30;;;;;;5052967;28;20183;-70
2022/03/01 09:55:39;;;;;;;6.18;4.45;;;18.50;46.20;;;;;;5053696;28;20231;-67
2022/03/01 09:58:05;;;;;;;6.25;4.18;;;18.50;46.20;;;;;;5052131;28;20175;-70
2022/03/01 10:00:30;;;;;;;4.82;4.43;;;18.50;46.40;;;;;;5052839;28;20175;-69
2022/03/01 10:02:56;;;;;;;6.40;4.88;;;18.50;46.50;;;;;;5053268;28;20587;-72
2022/03/01 10:05:39;;;;;;;4.95;4.43;;;18.50;46.60;;;;;;5053666;28;20255;-73
2022/03/01 10:08:10;;;;;;;4.78;4.20;;;18.50;46.60;;;;;;5052753;28;20218;-71
2022/03/01 10:10:38;;;;;;;4.47;4.07;;;18.60;46.60;;;;;;5053536;28;20171;-71
2022/03/01 10:13:03;;;;;;;5.00;4.50;;;18.60;46.70;;;;;;5052994;28;20210;-72
2022/03/01 10:15:29;;;;;;;4.80;4.40;;;18.70;46.60;;;;;;5052685;28;20669;-68
2022/03/01 10:17:55;;;;;;;5.20;4.75;;;18.70;46.60;;;;;;5053168;28;20206;-68
2022/03/01 10:20:20;;;;;;;4.32;3.92;;;18.70;46.60;;;;;;5053385;28;20609;-74
2022/03/01 10:22:48;;;;;;;5.88;4.25;;;18.80;46.80;;;;;;5051882;28;20225;-71
2022/03/01 10:25:15;;;;;;;4.97;4.22;;;18.80;46.60;;;;;;5052291;28;20179;-72
2022/03/01 10:27:42;;;;;;;4.80;4.25;;;18.70;46.60;;;;;;5052236;28;20646;-72
2022/03/01 10:30:08;;;;;;;5.55;4.05;;;18.70;46.90;;;;;;5051887;28;20203;-71
2022/03/01 10:32:34;;;;;;;5.80;4.50;;;18.60;46.80;;;;;;5053207;28;20573;-68
2022/03/01 10:35:02;;;;;;;5.32;4.43;;;18.60;46.90;;;;;;5052668;28;20214;-68
2022/03/01 10:37:32;;;;;;;5.15;4.38;;;18.70;46.80;;;;;;5052118;28;20550;-68
2022/03/01 10:40:19;;;;;;;5.25;4.75;;;18.70;46.60;;;;;;5052491;28;20259;-71
2022/03/01 10:42:45;;;;;;;4.00;3.67;;;18.90;46.50;;;;;;5052292;28;20171;-71
2022/03/01 10:45:11;;;;;;;6.28;4.55;;;18.80;46.60;;;;;;5052457;28;20552;-72
2022/03/01 10:47:37;;;;;;;5.18;4.25;;;18.80;46.60;;;;;;5052616;28;20233;-72
2022/03/01 10:50:05;;;;;;;5.10;3.97;;;18.70;46.80;;;;;;5051703;28;20186;-72
2022/03/01 10:52:32;;;;;;;5.07;4.40;;;18.70;47.40;;;;;;5052626;28;20373;-72
2022/03/01 10:54:58;;;;;;;5.07;3.97;;;18.70;46.80;;;;;;5052033;28;20238;-68
2022/03/01 10:57:23;;;;;;;5.43;4.55;;;18.60;47.00;;;;;;5052088;28;20304;-68
2022/03/01 10:59:49;;;;;;;7.85;4.45;;;18.60;47.30;;;;;;5052484;28;20171;-68
2022/03/01 11:02:17;;;;;;;5.50;4.70;;;18.60;47.00;;;;;;5052114;28;20240;-67
2022/03/01 11:04:44;;;;;;;5.38;4.20;;;18.60;47.00;;;;;;5051670;28;20557;-68
2022/03/01 11:07:10;;;;;;;4.50;4.10;;;18.60;46.80;;;;;;5052058;28;20250;-67
2022/03/01 11:09:35;;;;;;;5.60;4.05;;;18.50;47.00;;;;;;5052876;28;20171;-67
2022/03/01 11:12:03;;;;;;;4.15;3.75;;;18.50;47.20;;;;;;5051762;28;20191;-66
2022/03/01 11:14:42;;;;;;;6.10;4.95;;;18.40;47.30;;;;;;5052501;28;20203;-69
2022/03/01 11:17:13;;;;;;;5.68;4.60;;;18.40;47.10;;;;;;5035870;28;20550;-68
2022/03/01 11:19:50;;;;;;;5.07;3.85;;;18.30;47.10;;;;;;5051411;28;20566;-67
2022/03/01 11:22:22;;;;;;;4.68;4.30;;;18.30;47.30;;;;;;5052166;28;20167;-68
2022/03/01 11:24:47;;;;;;;5.85;4.35;;;18.30;47.30;;;;;;5049928;28;20280;-70
2022/03/01 11:27:18;;;;;;;5.30;4.68;;;18.30;47.30;;;;;;5033997;28;20211;-71
2022/03/01 11:29:43;;;;;;;5.05;4.15;;;18.40;47.20;;;;;;5052188;28;20183;-70
2022/03/01 11:32:13;;;;;;;5.95;4.30;;;18.40;47.20;;;;;;5050796;28;20174;-68
2022/03/01 11:34:39;;;;;;;5.03;4.53;;;18.40;47.20;;;;;;5052019;28;20215;-69
2022/03/01 11:37:10;;;;;;;4.32;3.92;;;18.40;47.20;;;;;;5051886;28;20178;-69
2022/03/01 11:39:36;;;;;;;4.90;4.18;;;18.50;47.20;;;;;;5050061;28;20182;-70
2022/03/01 11:42:07;;;;;;;4.72;4.22;;;18.40;47.40;;;;;;5051810;28;20183;-68
2022/03/01 11:44:36;;;;;;;4.32;3.90;;;18.40;47.40;;;;;;5051824;28;20221;-72
2022/03/01 11:47:06;;;;;;;8.35;4.85;;;18.40;47.60;;;;;;5051049;28;20186;-71
2022/03/01 11:49:34;;;;;;;5.43;4.93;;;18.30;47.10;;;;;;5051771;28;20175;-69
2022/03/01 11:52:00;;;;;;;7.65;4.53;;;18.30;47.30;;;;;;5051402;28;20533;-69
2022/03/01 11:54:33;;;;;;;5.72;4.70;;;18.30;47.30;;;;;;5050590;28;20231;-69
2022/03/01 11:56:59;;;;;;;5.22;4.72;;;18.30;47.30;;;;;;5051508;28;20198;-68
2022/03/01 11:59:26;;;;;;;6.55;4.35;;;18.30;47.30;;;;;;5050455;28;20217;-69
2022/03/01 12:01:52;;;;;;;7.07;4.53;;;18.30;47.40;;;;;;5051246;28;20190;-68
2022/03/01 12:04:22;;;;;;;5.15;4.10;;;18.30;47.40;;;;;;5051492;28;20261;-69
2022/03/01 12:06:54;;;;;;;4.47;3.97;;;18.20;47.50;;;;;;5050836;28;20590;-68
2022/03/01 12:09:20;;;;;;;4.25;3.85;;;18.20;47.50;;;;;;5051873;28;20217;-69
2022/03/01 12:11:46;;;;;;;5.20;4.30;;;18.20;47.50;;;;;;5050418;28;20605;-67
2022/03/01 12:14:18;;;;;;;6.60;4.55;;;18.20;47.50;;;;;;5050444;28;20218;-71
2022/03/01 12:16:44;;;;;;;4.43;3.90;;;18.20;47.70;;;;;;5051121;28;20195;-71
2022/03/01 12:19:19;;;;;;;7.30;4.65;;;18.20;47.80;;;;;;5050824;28;20178;-73
2022/03/01 12:21:51;;;;;;;8.48;4.35;;;18.10;48.20;;;;;;5048041;28;20182;-73
2022/03/01 12:24:18;;;;;;;4.50;3.95;;;18.10;48.00;;;;;;5050771;28;20622;-73
2022/03/01 12:26:53;;;;;;;5.80;4.60;;;18.10;48.00;;;;;;5051257;28;20235;-71
2022/03/01 12:29:33;;;;;;;5.80;4.07;;;18.10;48.00;;;;;;5048669;28;20186;-70
2022/03/01 12:32:01;;;;;;;8.25;4.22;;;18.20;48.00;;;;;;5047946;28;20175;-67
2022/03/01 12:34:28;;;;;;;5.95;4.10;;;18.10;48.00;;;;;;5041184;28;20248;-67
2022/03/01 12:36:58;;;;;;;5.53;4.82;;;18.10;48.00;;;;;;5031903;28;20188;-67
2022/03/01 12:39:25;;;;;;;4.85;4.22;;;18.10;47.80;;;;;;5051438;28;20638;-68
2022/03/01 12:41:51;;;;;;;4.80;4.30;;;18.10;47.80;;;;;;5054932;28;20179;-67